sensor_id;sensor_type;location;lat;lon;timestamp;temperature;humidity
15707;DHT22;7953;54.302;10.128;2023-06-24T00:02:04;16.50;99.90
15707;DHT22;7953;54.302;10.128;2023-06-24T00:04:31;16.40;99.90
15707;DHT22;7953;54.302;10.128;2023-06-24T00:06:59;16.40;99.90
15707;DHT22;7953;54.302;10.128;2023-06-24T00:09:26;16.30;99.90
15707;DHT22;7953;54.302;10.128;2023-06-24T00:11:53;16.30;99.90
15707;DHT22;7953;54.302;10.128;2023-06-24T00:14:22;16.30;99.90
15707;DHT22;7953;54.302;10.128;2023-06-24T00:16:49;16.30;99.90
15707;DHT22;7953;54.302;10.128;2023-06-24T00:19:18;16.20;99.90
15707;DHT22;7953;54.302;10.128;2023-06-24T00:21:46;16.20;99.90
15707;DHT22;7953;54.302;10.128;2023-06-24T00:24:12;16.20;99.90
15707;DHT22;7953;54.302;10.128;2023-06-24T00:26:39;16.10;99.90
15707;DHT22;7953;54.302;10.128;2023-06-24T00:29:06;16.10;99.90
15707;DHT22;7953;54.302;10.128;2023-06-24T00:31:35;16.10;99.90
15707;DHT22;7953;54.302;10.128;2023-06-24T00:34:01;16.10;99.90
15707;DHT22;7953;54.302;10.128;2023-06-24T00:36:28;16.10;99.90
15707;DHT22;7953;54.302;10.128;2023-06-24T00:38:57;16.10;99.90
15707;DHT22;7953;54.302;10.128;2023-06-24T00:41:26;16.00;99.90
15707;DHT22;7953;54.302;10.128;2023-06-24T00:43:53;16.00;99.90
15707;DHT22;7953;54.302;10.128;2023-06-24T00:46:23;15.90;99.90
15707;DHT22;7953;54.302;10.128;2023-06-24T00:48:52;15.90;99.90
15707;DHT22;7953;54.302;10.128;2023-06-24T00:51:19;15.80;99.90
15707;DHT22;7953;54.302;10.128;2023-06-24T00:53:46;15.80;99.90
15707;DHT22;7953;54.302;10.128;2023-06-24T00:56:16;15.70;99.90
15707;DHT22;7953;54.302;10.128;2023-06-24T00:58:44;15.70;99.90
15707;DHT22;7953;54.302;10.128;2023-06-24T01:01:12;15.70;99.90
15707;DHT22;7953;54.302;10.128;2023-06-24T01:03:40;15.60;99.90
15707;DHT22;7953;54.302;10.128;2023-06-24T01:06:09;15.60;99.90
15707;DHT22;7953;54.302;10.128;2023-06-24T01:08:36;15.60;99.90
15707;DHT22;7953;54.302;10.128;2023-06-24T01:11:03;15.60;99.90
15707;DHT22;7953;54.302;10.128;2023-06-24T01:13:30;15.60;99.90
15707;DHT22;7953;54.302;10.128;2023-06-24T01:15:58;15.60;99.90
15707;DHT22;7953;54.302;10.128;2023-06-24T01:18:30;15.60;99.90
15707;DHT22;7953;54.302;10.128;2023-06-24T01:21:03;15.50;99.90
15707;DHT22;7953;54.302;10.128;2023-06-24T01:27:02;15.40;99.90
15707;DHT22;7953;54.302;10.128;2023-06-24T01:29:47;15.40;99.90
15707;DHT22;7953;54.302;10.128;2023-06-24T01:32:26;15.40;99.90
15707;DHT22;7953;54.302;10.128;2023-06-24T01:34:57;15.30;99.90
15707;DHT22;7953;54.302;10.128;2023-06-24T01:37:29;15.30;99.90
15707;DHT22;7953;54.302;10.128;2023-06-24T01:40:09;15.30;99.90
15707;DHT22;7953;54.302;10.128;2023-06-24T01:42:39;15.30;99.90
15707;DHT22;7953;54.302;10.128;2023-06-24T01:45:08;15.30;99.90
15707;DHT22;7953;54.302;10.128;2023-06-24T01:47:38;15.30;99.90
15707;DHT22;7953;54.302;10.128;2023-06-24T01:50:09;15.20;99.90
15707;DHT22;7953;54.302;10.128;2023-06-24T01:52:38;15.20;99.90
15707;DHT22;7953;54.302;10.128;2023-06-24T01:55:09;15.20;99.90
15707;DHT22;7953;54.302;10.128;2023-06-24T01:57:37;15.20;99.90
15707;DHT22;7953;54.302;10.128;2023-06-24T02:00:06;15.10;99.90
15707;DHT22;7953;54.302;10.128;2023-06-24T02:02:37;15.10;99.90
15707;DHT22;7953;54.302;10.128;2023-06-24T02:05:05;15.10;99.90
15707;DHT22;7953;54.302;10.128;2023-06-24T02:07:33;15.10;99.90
15707;DHT22;7953;54.302;10.128;2023-06-24T02:10:01;15.00;99.90
15707;DHT22;7953;54.302;10.128;2023-06-24T02:12:30;15.00;99.90
15707;DHT22;7953;54.302;10.128;2023-06-24T02:14:58;15.00;99.90
15707;DHT22;7953;54.302;10.128;2023-06-24T02:17:26;15.00;99.90
15707;DHT22;7953;54.302;10.128;2023-06-24T02:19:56;15.00;99.90
15707;DHT22;7953;54.302;10.128;2023-06-24T02:22:24;15.00;99.90
15707;DHT22;7953;54.302;10.128;2023-06-24T02:24:52;14.90;99.90
15707;DHT22;7953;54.302;10.128;2023-06-24T02:27:20;14.90;99.90
15707;DHT22;7953;54.302;10.128;2023-06-24T02:29:48;14.90;99.90
15707;DHT22;7953;54.302;10.128;2023-06-24T02:32:16;14.90;99.90
15707;DHT22;7953;54.302;10.128;2023-06-24T02:34:43;14.90;99.90
15707;DHT22;7953;54.302;10.128;2023-06-24T02:37:14;14.80;99.90
15707;DHT22;7953;54.302;10.128;2023-06-24T02:39:41;14.80;99.90
15707;DHT22;7953;54.302;10.128;2023-06-24T02:42:10;14.80;99.90
15707;DHT22;7953;54.302;10.128;2023-06-24T02:44:38;14.80;99.90
15707;DHT22;7953;54.302;10.128;2023-06-24T02:47:08;14.70;99.90
15707;DHT22;7953;54.302;10.128;2023-06-24T02:49:37;14.70;99.90
15707;DHT22;7953;54.302;10.128;2023-06-24T02:52:04;14.70;99.90
15707;DHT22;7953;54.302;10.128;2023-06-24T02:54:33;14.70;99.90
15707;DHT22;7953;54.302;10.128;2023-06-24T02:57:00;14.70;99.90
15707;DHT22;7953;54.302;10.128;2023-06-24T02:59:27;14.70;99.90
15707;DHT22;7953;54.302;10.128;2023-06-24T03:01:55;14.70;99.90
15707;DHT22;7953;54.302;10.128;2023-06-24T03:04:22;14.70;99.90
15707;DHT22;7953;54.302;10.128;2023-06-24T03:06:51;14.70;99.90
15707;DHT22;7953;54.302;10.128;2023-06-24T03:09:18;14.70;99.90
15707;DHT22;7953;54.302;10.128;2023-06-24T03:11:47;14.60;99.90
15707;DHT22;7953;54.302;10.128;2023-06-24T03:14:13;14.60;99.90
15707;DHT22;7953;54.302;10.128;2023-06-24T03:16:41;14.60;99.90
15707;DHT22;7953;54.302;10.128;2023-06-24T03:19:08;14.60;99.90
15707;DHT22;7953;54.302;10.128;2023-06-24T03:21:35;14.50;99.90
15707;DHT22;7953;54.302;10.128;2023-06-24T03:24:01;14.60;99.90
15707;DHT22;7953;54.302;10.128;2023-06-24T03:26:32;14.60;99.90
15707;DHT22;7953;54.302;10.128;2023-06-24T03:29:01;14.60;99.90
15707;DHT22;7953;54.302;10.128;2023-06-24T03:31:28;14.50;99.90
15707;DHT22;7953;54.302;10.128;2023-06-24T03:33:55;14.60;99.90
15707;DHT22;7953;54.302;10.128;2023-06-24T03:36:22;14.60;99.90
15707;DHT22;7953;54.302;10.128;2023-06-24T03:38:49;14.50;99.90
15707;DHT22;7953;54.302;10.128;2023-06-24T03:41:16;14.50;99.90
15707;DHT22;7953;54.302;10.128;2023-06-24T03:43:44;14.60;99.90
15707;DHT22;7953;54.302;10.128;2023-06-24T03:46:12;14.60;99.90
15707;DHT22;7953;54.302;10.128;2023-06-24T03:48:39;14.60;99.90
15707;DHT22;7953;54.302;10.128;2023-06-24T03:51:07;14.60;99.90
15707;DHT22;7953;54.302;10.128;2023-06-24T03:53:33;14.60;99.90
15707;DHT22;7953;54.302;10.128;2023-06-24T03:56:00;14.60;99.90
15707;DHT22;7953;54.302;10.128;2023-06-24T03:58:27;14.60;99.90
15707;DHT22;7953;54.302;10.128;2023-06-24T04:00:54;14.60;99.90
15707;DHT22;7953;54.302;10.128;2023-06-24T04:03:24;14.60;99.90
15707;DHT22;7953;54.302;10.128;2023-06-24T04:05:53;14.60;99.90
15707;DHT22;7953;54.302;10.128;2023-06-24T04:08:21;14.60;99.90
15707;DHT22;7953;54.302;10.128;2023-06-24T04:10:48;14.60;99.90
15707;DHT22;7953;54.302;10.128;2023-06-24T04:13:18;14.70;99.90
15707;DHT22;7953;54.302;10.128;2023-06-24T04:15:56;14.70;99.90
15707;DHT22;7953;54.302;10.128;2023-06-24T04:18:30;14.80;99.90
15707;DHT22;7953;54.302;10.128;2023-06-24T04:21:12;14.80;99.90
15707;DHT22;7953;54.302;10.128;2023-06-24T04:23:46;14.90;99.90
15707;DHT22;7953;54.302;10.128;2023-06-24T04:26:13;14.90;99.90
15707;DHT22;7953;54.302;10.128;2023-06-24T04:28:48;14.90;99.90
15707;DHT22;7953;54.302;10.128;2023-06-24T04:31:18;14.90;99.90
15707;DHT22;7953;54.302;10.128;2023-06-24T04:34:06;14.90;99.90
15707;DHT22;7953;54.302;10.128;2023-06-24T04:36:51;15.00;99.90
15707;DHT22;7953;54.302;10.128;2023-06-24T04:39:25;15.00;99.90
15707;DHT22;7953;54.302;10.128;2023-06-24T04:42:06;15.10;99.90
15707;DHT22;7953;54.302;10.128;2023-06-24T04:44:38;15.10;99.90
15707;DHT22;7953;54.302;10.128;2023-06-24T04:47:26;15.20;99.90
15707;DHT22;7953;54.302;10.128;2023-06-24T04:50:29;15.30;99.90
15707;DHT22;7953;54.302;10.128;2023-06-24T04:52:56;15.30;99.90
15707;DHT22;7953;54.302;10.128;2023-06-24T04:55:31;15.40;99.90
15707;DHT22;7953;54.302;10.128;2023-06-24T04:58:01;15.40;99.90
15707;DHT22;7953;54.302;10.128;2023-06-24T05:00:37;15.50;99.90
15707;DHT22;7953;54.302;10.128;2023-06-24T05:03:20;15.50;99.90
15707;DHT22;7953;54.302;10.128;2023-06-24T05:05:49;15.60;99.90
15707;DHT22;7953;54.302;10.128;2023-06-24T05:08:19;15.60;99.90
15707;DHT22;7953;54.302;10.128;2023-06-24T05:10:49;15.70;99.90
15707;DHT22;7953;54.302;10.128;2023-06-24T05:13:23;15.80;99.90
15707;DHT22;7953;54.302;10.128;2023-06-24T05:15:52;15.80;99.90
15707;DHT22;7953;54.302;10.128;2023-06-24T05:18:19;15.90;99.90
15707;DHT22;7953;54.302;10.128;2023-06-24T05:20:53;16.00;99.90
15707;DHT22;7953;54.302;10.128;2023-06-24T05:23:23;16.10;99.90
15707;DHT22;7953;54.302;10.128;2023-06-24T05:25:50;16.20;99.90
15707;DHT22;7953;54.302;10.128;2023-06-24T05:28:26;16.40;99.90
15707;DHT22;7953;54.302;10.128;2023-06-24T05:31:07;16.50;99.90
15707;DHT22;7953;54.302;10.128;2023-06-24T05:36:35;16.80;99.90
15707;DHT22;7953;54.302;10.128;2023-06-24T05:39:20;16.90;99.90
15707;DHT22;7953;54.302;10.128;2023-06-24T05:41:50;17.00;99.90
15707;DHT22;7953;54.302;10.128;2023-06-24T05:44:31;17.00;99.90
15707;DHT22;7953;54.302;10.128;2023-06-24T05:46:57;17.10;99.90
15707;DHT22;7953;54.302;10.128;2023-06-24T05:51:00;17.20;99.90
15707;DHT22;7953;54.302;10.128;2023-06-24T05:52:48;17.20;99.90
15707;DHT22;7953;54.302;10.128;2023-06-24T05:55:15;17.20;99.90
15707;DHT22;7953;54.302;10.128;2023-06-24T05:57:42;17.30;99.90
15707;DHT22;7953;54.302;10.128;2023-06-24T06:00:10;17.30;99.90
15707;DHT22;7953;54.302;10.128;2023-06-24T06:02:37;17.30;99.90
15707;DHT22;7953;54.302;10.128;2023-06-24T06:05:04;17.40;99.90
15707;DHT22;7953;54.302;10.128;2023-06-24T06:07:31;17.40;99.90
15707;DHT22;7953;54.302;10.128;2023-06-24T06:09:59;17.40;99.90
15707;DHT22;7953;54.302;10.128;2023-06-24T06:12:26;17.40;99.90
15707;DHT22;7953;54.302;10.128;2023-06-24T06:14:53;17.40;99.90
15707;DHT22;7953;54.302;10.128;2023-06-24T06:17:20;17.40;99.90
15707;DHT22;7953;54.302;10.128;2023-06-24T06:19:47;17.40;99.90
15707;DHT22;7953;54.302;10.128;2023-06-24T06:22:14;17.50;99.90
15707;DHT22;7953;54.302;10.128;2023-06-24T06:24:41;17.50;99.90
15707;DHT22;7953;54.302;10.128;2023-06-24T06:27:10;17.60;99.90
15707;DHT22;7953;54.302;10.128;2023-06-24T06:29:37;17.70;99.90
15707;DHT22;7953;54.302;10.128;2023-06-24T06:32:06;17.70;99.90
15707;DHT22;7953;54.302;10.128;2023-06-24T06:34:33;17.80;99.90
15707;DHT22;7953;54.302;10.128;2023-06-24T06:37:00;18.00;99.90
15707;DHT22;7953;54.302;10.128;2023-06-24T06:39:27;18.10;99.90
15707;DHT22;7953;54.302;10.128;2023-06-24T06:41:54;18.20;99.90
15707;DHT22;7953;54.302;10.128;2023-06-24T06:44:22;18.30;99.90
15707;DHT22;7953;54.302;10.128;2023-06-24T06:46:55;18.40;99.90
15707;DHT22;7953;54.302;10.128;2023-06-24T06:49:32;18.60;99.90
15707;DHT22;7953;54.302;10.128;2023-06-24T06:51:59;18.70;99.90
15707;DHT22;7953;54.302;10.128;2023-06-24T06:54:25;18.80;99.90
15707;DHT22;7953;54.302;10.128;2023-06-24T06:56:52;18.90;99.90
15707;DHT22;7953;54.302;10.128;2023-06-24T06:59:26;18.90;99.90
15707;DHT22;7953;54.302;10.128;2023-06-24T07:01:53;19.20;99.90
15707;DHT22;7953;54.302;10.128;2023-06-24T07:04:20;19.50;99.90
15707;DHT22;7953;54.302;10.128;2023-06-24T07:06:47;19.70;99.90
15707;DHT22;7953;54.302;10.128;2023-06-24T07:09:15;19.90;99.90
15707;DHT22;7953;54.302;10.128;2023-06-24T07:11:46;20.10;99.90
15707;DHT22;7953;54.302;10.128;2023-06-24T07:14:14;20.20;99.90
15707;DHT22;7953;54.302;10.128;2023-06-24T07:16:42;20.20;99.90
15707;DHT22;7953;54.302;10.128;2023-06-24T07:19:09;20.20;99.90
15707;DHT22;7953;54.302;10.128;2023-06-24T07:21:37;20.30;99.90
15707;DHT22;7953;54.302;10.128;2023-06-24T07:24:06;20.40;99.90
15707;DHT22;7953;54.302;10.128;2023-06-24T07:26:33;20.60;99.90
15707;DHT22;7953;54.302;10.128;2023-06-24T07:29:00;20.70;99.90
15707;DHT22;7953;54.302;10.128;2023-06-24T07:31:27;20.60;99.90
15707;DHT22;7953;54.302;10.128;2023-06-24T07:34:07;20.80;99.90
15707;DHT22;7953;54.302;10.128;2023-06-24T07:36:37;20.80;99.90
15707;DHT22;7953;54.302;10.128;2023-06-24T07:39:05;20.80;99.90
15707;DHT22;7953;54.302;10.128;2023-06-24T07:41:36;20.80;99.90
15707;DHT22;7953;54.302;10.128;2023-06-24T07:44:05;20.90;99.90
15707;DHT22;7953;54.302;10.128;2023-06-24T07:46:32;21.00;99.90
15707;DHT22;7953;54.302;10.128;2023-06-24T07:48:59;21.00;99.90
15707;DHT22;7953;54.302;10.128;2023-06-24T07:51:33;21.20;99.90
15707;DHT22;7953;54.302;10.128;2023-06-24T07:54:14;21.30;99.90
15707;DHT22;7953;54.302;10.128;2023-06-24T07:57:07;21.20;99.90
15707;DHT22;7953;54.302;10.128;2023-06-24T07:59:43;21.30;99.90
15707;DHT22;7953;54.302;10.128;2023-06-24T08:02:10;21.50;99.90
15707;DHT22;7953;54.302;10.128;2023-06-24T08:04:37;21.70;99.90
15707;DHT22;7953;54.302;10.128;2023-06-24T08:07:05;22.10;99.90
15707;DHT22;7953;54.302;10.128;2023-06-24T08:09:32;22.50;99.90
15707;DHT22;7953;54.302;10.128;2023-06-24T08:11:59;23.00;99.90
15707;DHT22;7953;54.302;10.128;2023-06-24T08:14:26;23.00;99.90
15707;DHT22;7953;54.302;10.128;2023-06-24T08:16:53;22.90;99.90
15707;DHT22;7953;54.302;10.128;2023-06-24T08:19:19;22.90;99.90
15707;DHT22;7953;54.302;10.128;2023-06-24T08:21:47;22.90;99.90
15707;DHT22;7953;54.302;10.128;2023-06-24T08:24:15;23.00;99.90
15707;DHT22;7953;54.302;10.128;2023-06-24T08:26:42;23.00;99.90
15707;DHT22;7953;54.302;10.128;2023-06-24T08:29:09;22.80;99.90
15707;DHT22;7953;54.302;10.128;2023-06-24T08:31:35;22.80;99.90
15707;DHT22;7953;54.302;10.128;2023-06-24T08:34:02;22.60;99.90
15707;DHT22;7953;54.302;10.128;2023-06-24T08:36:31;22.40;99.90
15707;DHT22;7953;54.302;10.128;2023-06-24T08:38:59;22.60;99.90
15707;DHT22;7953;54.302;10.128;2023-06-24T08:41:27;22.90;99.90
15707;DHT22;7953;54.302;10.128;2023-06-24T08:43:54;23.00;99.90
15707;DHT22;7953;54.302;10.128;2023-06-24T08:46:24;23.10;99.90
15707;DHT22;7953;54.302;10.128;2023-06-24T08:48:56;23.20;99.90
15707;DHT22;7953;54.302;10.128;2023-06-24T08:51:27;23.00;99.90
15707;DHT22;7953;54.302;10.128;2023-06-24T08:53:57;23.30;99.90
15707;DHT22;7953;54.302;10.128;2023-06-24T08:56:26;23.70;99.90
15707;DHT22;7953;54.302;10.128;2023-06-24T08:58:55;24.10;99.90
15707;DHT22;7953;54.302;10.128;2023-06-24T09:01:22;24.40;99.90
15707;DHT22;7953;54.302;10.128;2023-06-24T09:03:52;24.50;99.90
15707;DHT22;7953;54.302;10.128;2023-06-24T09:06:19;24.90;99.90
15707;DHT22;7953;54.302;10.128;2023-06-24T09:08:52;25.20;99.90
15707;DHT22;7953;54.302;10.128;2023-06-24T09:11:22;25.30;99.90
15707;DHT22;7953;54.302;10.128;2023-06-24T09:13:55;25.50;99.90
15707;DHT22;7953;54.302;10.128;2023-06-24T09:16:23;25.70;99.90
15707;DHT22;7953;54.302;10.128;2023-06-24T09:18:51;26.00;99.90
15707;DHT22;7953;54.302;10.128;2023-06-24T09:21:23;25.90;99.90
15707;DHT22;7953;54.302;10.128;2023-06-24T09:23:53;25.60;99.90
15707;DHT22;7953;54.302;10.128;2023-06-24T09:26:22;25.70;99.90
15707;DHT22;7953;54.302;10.128;2023-06-24T09:28:49;25.50;99.90
15707;DHT22;7953;54.302;10.128;2023-06-24T09:31:18;25.60;99.90
15707;DHT22;7953;54.302;10.128;2023-06-24T09:33:47;26.10;99.90
15707;DHT22;7953;54.302;10.128;2023-06-24T09:36:15;26.60;99.90
15707;DHT22;7953;54.302;10.128;2023-06-24T09:38:43;27.10;99.90
15707;DHT22;7953;54.302;10.128;2023-06-24T09:41:11;27.10;99.90
15707;DHT22;7953;54.302;10.128;2023-06-24T09:43:38;27.20;99.90
15707;DHT22;7953;54.302;10.128;2023-06-24T09:46:06;27.50;99.90
15707;DHT22;7953;54.302;10.128;2023-06-24T09:48:35;27.80;99.90
15707;DHT22;7953;54.302;10.128;2023-06-24T09:51:03;28.00;99.90
15707;DHT22;7953;54.302;10.128;2023-06-24T09:53:31;28.10;99.90
15707;DHT22;7953;54.302;10.128;2023-06-24T09:55:59;28.30;99.90
15707;DHT22;7953;54.302;10.128;2023-06-24T09:58:28;28.50;99.90
15707;DHT22;7953;54.302;10.128;2023-06-24T10:00:58;28.70;99.90
15707;DHT22;7953;54.302;10.128;2023-06-24T10:03:29;28.70;99.90
15707;DHT22;7953;54.302;10.128;2023-06-24T10:05:58;28.60;99.90
15707;DHT22;7953;54.302;10.128;2023-06-24T10:08:37;28.40;99.90
15707;DHT22;7953;54.302;10.128;2023-06-24T10:11:05;28.40;99.90
15707;DHT22;7953;54.302;10.128;2023-06-24T10:13:42;28.30;99.90
15707;DHT22;7953;54.302;10.128;2023-06-24T10:16:15;28.00;99.90
15707;DHT22;7953;54.302;10.128;2023-06-24T10:18:45;27.80;99.90
15707;DHT22;7953;54.302;10.128;2023-06-24T10:21:15;27.40;99.90
15707;DHT22;7953;54.302;10.128;2023-06-24T10:23:52;27.10;99.90
15707;DHT22;7953;54.302;10.128;2023-06-24T10:26:23;27.10;99.90
15707;DHT22;7953;54.302;10.128;2023-06-24T10:29:09;27.40;99.90
15707;DHT22;7953;54.302;10.128;2023-06-24T10:31:52;27.60;99.90
15707;DHT22;7953;54.302;10.128;2023-06-24T10:34:39;27.80;99.90
15707;DHT22;7953;54.302;10.128;2023-06-24T10:37:14;27.60;99.90
15707;DHT22;7953;54.302;10.128;2023-06-24T10:39:57;27.70;99.90
15707;DHT22;7953;54.302;10.128;2023-06-24T10:45:18;27.50;99.90
15707;DHT22;7953;54.302;10.128;2023-06-24T10:47:47;27.50;99.90
15707;DHT22;7953;54.302;10.128;2023-06-24T10:50:15;27.30;99.90
15707;DHT22;7953;54.302;10.128;2023-06-24T10:52:45;27.30;99.90
15707;DHT22;7953;54.302;10.128;2023-06-24T10:55:24;27.50;99.90
15707;DHT22;7953;54.302;10.128;2023-06-24T10:58:07;27.70;99.90
15707;DHT22;7953;54.302;10.128;2023-06-24T11:00:51;27.90;99.90
15707;DHT22;7953;54.302;10.128;2023-06-24T11:03:19;28.00;99.90
15707;DHT22;7953;54.302;10.128;2023-06-24T11:05:51;28.20;99.90
15707;DHT22;7953;54.302;10.128;2023-06-24T11:08:29;28.30;99.90
15707;DHT22;7953;54.302;10.128;2023-06-24T11:11:00;28.10;99.90
15707;DHT22;7953;54.302;10.128;2023-06-24T11:13:43;28.00;99.90
15707;DHT22;7953;54.302;10.128;2023-06-24T11:16:49;28.10;99.90
15707;DHT22;7953;54.302;10.128;2023-06-24T11:19:28;27.80;99.90
15707;DHT22;7953;54.302;10.128;2023-06-24T11:21:59;27.70;99.90
15707;DHT22;7953;54.302;10.128;2023-06-24T11:24:30;27.40;99.90
15707;DHT22;7953;54.302;10.128;2023-06-24T11:26:57;27.00;99.90
15707;DHT22;7953;54.302;10.128;2023-06-24T11:29:24;26.90;99.90
15707;DHT22;7953;54.302;10.128;2023-06-24T11:32:00;26.90;99.90
15707;DHT22;7953;54.302;10.128;2023-06-24T11:34:29;27.20;99.90
15707;DHT22;7953;54.302;10.128;2023-06-24T11:37:00;27.40;99.90
15707;DHT22;7953;54.302;10.128;2023-06-24T11:39:36;27.80;99.90
15707;DHT22;7953;54.302;10.128;2023-06-24T11:42:06;28.20;99.90
15707;DHT22;7953;54.302;10.128;2023-06-24T11:44:36;28.10;99.90
15707;DHT22;7953;54.302;10.128;2023-06-24T11:47:06;28.00;99.90
15707;DHT22;7953;54.302;10.128;2023-06-24T11:49:50;28.10;99.90
15707;DHT22;7953;54.302;10.128;2023-06-24T11:52:31;28.00;99.90
15707;DHT22;7953;54.302;10.128;2023-06-24T11:55:01;28.20;99.90
15707;DHT22;7953;54.302;10.128;2023-06-24T11:57:49;28.00;99.90
15707;DHT22;7953;54.302;10.128;2023-06-24T12:00:16;28.10;99.90
15707;DHT22;7953;54.302;10.128;2023-06-24T12:02:43;28.10;99.90
15707;DHT22;7953;54.302;10.128;2023-06-24T12:05:10;28.10;99.90
15707;DHT22;7953;54.302;10.128;2023-06-24T12:07:39;27.70;99.90
15707;DHT22;7953;54.302;10.128;2023-06-24T12:10:09;27.80;99.90
15707;DHT22;7953;54.302;10.128;2023-06-24T12:12:42;27.80;99.90
15707;DHT22;7953;54.302;10.128;2023-06-24T12:15:09;27.80;99.90
15707;DHT22;7953;54.302;10.128;2023-06-24T12:17:36;27.80;99.90
15707;DHT22;7953;54.302;10.128;2023-06-24T12:20:05;28.30;99.90
15707;DHT22;7953;54.302;10.128;2023-06-24T12:22:33;28.70;99.90
15707;DHT22;7953;54.302;10.128;2023-06-24T12:25:10;28.90;99.90
15707;DHT22;7953;54.302;10.128;2023-06-24T12:27:58;29.00;99.90
15707;DHT22;7953;54.302;10.128;2023-06-24T12:33:57;28.70;99.90
15707;DHT22;7953;54.302;10.128;2023-06-24T12:36:24;28.50;99.90
15707;DHT22;7953;54.302;10.128;2023-06-24T12:38:51;28.20;99.90
15707;DHT22;7953;54.302;10.128;2023-06-24T12:41:19;28.00;99.90
15707;DHT22;7953;54.302;10.128;2023-06-24T12:43:47;27.90;99.90
15707;DHT22;7953;54.302;10.128;2023-06-24T12:46:14;28.00;99.90
15707;DHT22;7953;54.302;10.128;2023-06-24T12:48:40;28.20;99.90
15707;DHT22;7953;54.302;10.128;2023-06-24T12:51:09;28.10;99.90
15707;DHT22;7953;54.302;10.128;2023-06-24T12:53:36;27.90;99.90
15707;DHT22;7953;54.302;10.128;2023-06-24T12:56:03;27.90;99.90
15707;DHT22;7953;54.302;10.128;2023-06-24T12:58:31;28.00;99.90
15707;DHT22;7953;54.302;10.128;2023-06-24T13:00:58;28.10;99.90
15707;DHT22;7953;54.302;10.128;2023-06-24T13:03:25;28.40;99.90
15707;DHT22;7953;54.302;10.128;2023-06-24T13:05:52;28.70;99.90
15707;DHT22;7953;54.302;10.128;2023-06-24T13:08:19;29.20;99.90
15707;DHT22;7953;54.302;10.128;2023-06-24T13:10:46;29.50;99.90
15707;DHT22;7953;54.302;10.128;2023-06-24T13:13:12;29.60;99.90
15707;DHT22;7953;54.302;10.128;2023-06-24T13:15:41;29.70;99.90
15707;DHT22;7953;54.302;10.128;2023-06-24T13:18:08;29.70;99.90
15707;DHT22;7953;54.302;10.128;2023-06-24T13:20:34;29.60;99.90
15707;DHT22;7953;54.302;10.128;2023-06-24T13:23:01;29.40;99.90
15707;DHT22;7953;54.302;10.128;2023-06-24T13:25:28;29.20;99.90
15707;DHT22;7953;54.302;10.128;2023-06-24T13:27:55;29.20;99.90
15707;DHT22;7953;54.302;10.128;2023-06-24T13:30:22;29.40;99.90
15707;DHT22;7953;54.302;10.128;2023-06-24T13:32:51;29.50;99.90
15707;DHT22;7953;54.302;10.128;2023-06-24T13:35:18;29.60;99.90
15707;DHT22;7953;54.302;10.128;2023-06-24T13:37:44;29.60;99.90
15707;DHT22;7953;54.302;10.128;2023-06-24T13:40:11;29.50;99.90
15707;DHT22;7953;54.302;10.128;2023-06-24T13:42:38;29.40;99.90
15707;DHT22;7953;54.302;10.128;2023-06-24T13:45:06;29.70;99.90
15707;DHT22;7953;54.302;10.128;2023-06-24T13:47:33;29.80;99.90
15707;DHT22;7953;54.302;10.128;2023-06-24T13:50:01;30.00;99.90
15707;DHT22;7953;54.302;10.128;2023-06-24T13:52:28;30.20;99.90
15707;DHT22;7953;54.302;10.128;2023-06-24T13:54:55;30.10;99.90
15707;DHT22;7953;54.302;10.128;2023-06-24T13:57:22;30.20;99.90
15707;DHT22;7953;54.302;10.128;2023-06-24T13:59:49;30.10;99.90
15707;DHT22;7953;54.302;10.128;2023-06-24T14:02:16;30.10;99.90
15707;DHT22;7953;54.302;10.128;2023-06-24T14:04:43;30.00;99.90
15707;DHT22;7953;54.302;10.128;2023-06-24T14:07:12;30.00;99.90
15707;DHT22;7953;54.302;10.128;2023-06-24T14:09:39;29.70;99.90
15707;DHT22;7953;54.302;10.128;2023-06-24T14:12:07;29.60;99.90
15707;DHT22;7953;54.302;10.128;2023-06-24T14:14:35;29.80;99.90
15707;DHT22;7953;54.302;10.128;2023-06-24T14:17:03;29.50;99.90
15707;DHT22;7953;54.302;10.128;2023-06-24T14:19:34;29.60;99.90
15707;DHT22;7953;54.302;10.128;2023-06-24T14:22:01;29.50;99.90
15707;DHT22;7953;54.302;10.128;2023-06-24T14:24:29;29.50;99.90
15707;DHT22;7953;54.302;10.128;2023-06-24T14:26:56;29.80;99.90
15707;DHT22;7953;54.302;10.128;2023-06-24T14:29:23;29.90;99.90
15707;DHT22;7953;54.302;10.128;2023-06-24T14:31:51;30.00;99.90
15707;DHT22;7953;54.302;10.128;2023-06-24T14:34:18;29.80;99.90
15707;DHT22;7953;54.302;10.128;2023-06-24T14:36:45;29.60;99.90
15707;DHT22;7953;54.302;10.128;2023-06-24T14:39:15;29.60;99.90
15707;DHT22;7953;54.302;10.128;2023-06-24T14:41:44;29.30;99.90
15707;DHT22;7953;54.302;10.128;2023-06-24T14:44:11;29.10;99.90
15707;DHT22;7953;54.302;10.128;2023-06-24T14:46:38;29.00;99.90
15707;DHT22;7953;54.302;10.128;2023-06-24T14:49:04;28.90;99.90
15707;DHT22;7953;54.302;10.128;2023-06-24T14:51:31;28.90;99.90
15707;DHT22;7953;54.302;10.128;2023-06-24T14:53:58;29.20;99.90
15707;DHT22;7953;54.302;10.128;2023-06-24T14:56:25;29.20;99.90
15707;DHT22;7953;54.302;10.128;2023-06-24T14:58:53;29.00;99.90
15707;DHT22;7953;54.302;10.128;2023-06-24T15:01:20;28.80;99.90
15707;DHT22;7953;54.302;10.128;2023-06-24T15:03:47;28.80;99.90
15707;DHT22;7953;54.302;10.128;2023-06-24T15:06:14;29.10;99.90
15707;DHT22;7953;54.302;10.128;2023-06-24T15:08:41;29.30;99.90
15707;DHT22;7953;54.302;10.128;2023-06-24T15:11:08;29.40;99.90
15707;DHT22;7953;54.302;10.128;2023-06-24T15:13:35;29.60;99.90
15707;DHT22;7953;54.302;10.128;2023-06-24T15:16:04;29.40;99.90
15707;DHT22;7953;54.302;10.128;2023-06-24T15:18:31;29.20;99.90
15707;DHT22;7953;54.302;10.128;2023-06-24T15:20:58;29.40;99.90
15707;DHT22;7953;54.302;10.128;2023-06-24T15:23:25;29.50;99.90
15707;DHT22;7953;54.302;10.128;2023-06-24T15:25:52;29.60;99.90
15707;DHT22;7953;54.302;10.128;2023-06-24T15:28:19;29.30;99.90
15707;DHT22;7953;54.302;10.128;2023-06-24T15:30:45;29.10;99.90
15707;DHT22;7953;54.302;10.128;2023-06-24T15:33:14;28.80;99.90
15707;DHT22;7953;54.302;10.128;2023-06-24T15:35:41;28.70;99.90
15707;DHT22;7953;54.302;10.128;2023-06-24T15:38:08;28.60;99.90
15707;DHT22;7953;54.302;10.128;2023-06-24T15:40:35;28.50;99.90
15707;DHT22;7953;54.302;10.128;2023-06-24T15:43:02;28.40;99.90
15707;DHT22;7953;54.302;10.128;2023-06-24T15:45:29;28.40;99.90
15707;DHT22;7953;54.302;10.128;2023-06-24T15:47:56;28.30;99.90
15707;DHT22;7953;54.302;10.128;2023-06-24T15:50:24;28.00;99.90
15707;DHT22;7953;54.302;10.128;2023-06-24T15:52:51;28.00;99.90
15707;DHT22;7953;54.302;10.128;2023-06-24T15:55:18;27.80;99.90
15707;DHT22;7953;54.302;10.128;2023-06-24T15:57:45;27.70;99.90
15707;DHT22;7953;54.302;10.128;2023-06-24T16:00:13;27.70;99.90